sensor_id;sensor_type;location;lat;lon;timestamp;pressure;altitude;pressure_sealevel;temperature;humidity
78671;BME280;68277;52.724;6.516;2023-03-14T00:01:40;98772.28;;;9.37;76.14
78671;BME280;68277;52.724;6.516;2023-03-14T00:04:05;98765.19;;;9.37;76.47
78671;BME280;68277;52.724;6.516;2023-03-14T00:06:31;98791.53;;;9.56;76.24
78671;BME280;68277;52.724;6.516;2023-03-14T00:08:57;98765.75;;;9.44;76.52
78671;BME280;68277;52.724;6.516;2023-03-14T00:11:22;98767.31;;;9.48;76.38
78671;BME280;68277;52.724;6.516;2023-03-14T00:13:51;98765.06;;;9.57;76.56
78671;BME280;68277;52.724;6.516;2023-03-14T00:16:18;98726.94;;;9.29;76.45
78671;BME280;68277;52.724;6.516;2023-03-14T00:18:44;98754.97;;;9.48;76.71
78671;BME280;68277;52.724;6.516;2023-03-14T00:21:11;98765.13;;;9.56;76.52
78671;BME280;68277;52.724;6.516;2023-03-14T00:23:38;98737.72;;;9.41;77.17
78671;BME280;68277;52.724;6.516;2023-03-14T00:26:09;98749.44;;;9.53;77.29
78671;BME280;68277;52.724;6.516;2023-03-14T00:28:35;98737.50;;;9.46;77.21
78671;BME280;68277;52.724;6.516;2023-03-14T00:31:09;98776.44;;;9.75;78.35
78671;BME280;68277;52.724;6.516;2023-03-14T00:33:35;98733.69;;;9.51;78.84
78671;BME280;68277;52.724;6.516;2023-03-14T00:36:13;98712.88;;;9.45;79.61
78671;BME280;68277;52.724;6.516;2023-03-14T00:38:40;98730.19;;;9.51;79.94
78671;BME280;68277;52.724;6.516;2023-03-14T00:41:24;98738.66;;;9.57;81.82
78671;BME280;68277;52.724;6.516;2023-03-14T00:43:50;98720.94;;;9.42;83.21
78671;BME280;68277;52.724;6.516;2023-03-14T00:46:16;98667.63;;;9.02;85.24
78671;BME280;68277;52.724;6.516;2023-03-14T00:48:44;98759.84;;;9.56;85.51
78671;BME280;68277;52.724;6.516;2023-03-14T00:51:10;98773.59;;;9.62;85.73
78671;BME280;68277;52.724;6.516;2023-03-14T00:53:37;98730.34;;;9.31;85.92
78671;BME280;68277;52.724;6.516;2023-03-14T00:56:05;98725.81;;;9.33;87.01
78671;BME280;68277;52.724;6.516;2023-03-14T00:58:31;98705.66;;;9.15;87.55
78671;BME280;68277;52.724;6.516;2023-03-14T01:00:57;98628.66;;;8.72;87.77
78671;BME280;68277;52.724;6.516;2023-03-14T01:03:24;98704.75;;;9.16;88.29
78671;BME280;68277;52.724;6.516;2023-03-14T01:05:49;98731.44;;;9.27;87.35
78671;BME280;68277;52.724;6.516;2023-03-14T01:08:15;98743.06;;;9.40;88.03
78671;BME280;68277;52.724;6.516;2023-03-14T01:10:41;98703.78;;;9.17;86.88
78671;BME280;68277;52.724;6.516;2023-03-14T01:13:07;98721.50;;;9.32;87.13
78671;BME280;68277;52.724;6.516;2023-03-14T01:15:36;98720.00;;;9.26;86.10
78671;BME280;68277;52.724;6.516;2023-03-14T01:18:02;98701.38;;;9.12;85.46
78671;BME280;68277;52.724;6.516;2023-03-14T01:20:28;98730.34;;;9.48;84.27
78671;BME280;68277;52.724;6.516;2023-03-14T01:22:53;98655.06;;;9.07;83.31
78671;BME280;68277;52.724;6.516;2023-03-14T01:25:19;98741.81;;;9.47;82.79
78671;BME280;68277;52.724;6.516;2023-03-14T01:27:45;98700.09;;;9.21;82.31
78671;BME280;68277;52.724;6.516;2023-03-14T01:30:12;98690.69;;;9.15;82.01
78671;BME280;68277;52.724;6.516;2023-03-14T01:32:38;98740.19;;;9.44;81.44
78671;BME280;68277;52.724;6.516;2023-03-14T01:35:05;98713.09;;;9.24;81.53
78671;BME280;68277;52.724;6.516;2023-03-14T01:37:31;98709.25;;;9.14;81.92
78671;BME280;68277;52.724;6.516;2023-03-14T01:39:57;98702.38;;;9.10;81.69
78671;BME280;68277;52.724;6.516;2023-03-14T01:42:23;98736.22;;;9.19;82.29
78671;BME280;68277;52.724;6.516;2023-03-14T01:44:57;98678.41;;;8.80;82.53
78671;BME280;68277;52.724;6.516;2023-03-14T01:47:23;98626.19;;;8.52;83.26
78671;BME280;68277;52.724;6.516;2023-03-14T01:49:55;98730.41;;;9.12;83.05
78671;BME280;68277;52.724;6.516;2023-03-14T01:55:06;98661.56;;;8.82;83.40
78671;BME280;68277;52.724;6.516;2023-03-14T01:57:41;98685.47;;;8.97;83.00
78671;BME280;68277;52.724;6.516;2023-03-14T02:00:14;98652.81;;;8.82;82.62
78671;BME280;68277;52.724;6.516;2023-03-14T02:02:47;98649.69;;;8.91;81.88
78671;BME280;68277;52.724;6.516;2023-03-14T02:05:21;98659.78;;;9.00;82.08
78671;BME280;68277;52.724;6.516;2023-03-14T02:07:58;98661.59;;;9.00;81.82
78671;BME280;68277;52.724;6.516;2023-03-14T02:10:32;98662.38;;;9.02;81.53
78671;BME280;68277;52.724;6.516;2023-03-14T02:13:03;98698.22;;;9.23;80.85
78671;BME280;68277;52.724;6.516;2023-03-14T02:15:52;98711.81;;;9.32;81.40
78671;BME280;68277;52.724;6.516;2023-03-14T02:18:38;98681.59;;;9.21;81.31
78671;BME280;68277;52.724;6.516;2023-03-14T02:24:07;98737.34;;;9.49;81.71
78671;BME280;68277;52.724;6.516;2023-03-14T02:27:10;98720.78;;;9.45;81.77
78671;BME280;68277;52.724;6.516;2023-03-14T02:29:56;98665.97;;;9.16;80.36
78671;BME280;68277;52.724;6.516;2023-03-14T02:32:24;98713.97;;;9.41;80.92
78671;BME280;68277;52.724;6.516;2023-03-14T02:34:54;98703.78;;;9.34;81.23
78671;BME280;68277;52.724;6.516;2023-03-14T02:37:25;98647.53;;;8.99;81.24
78671;BME280;68277;52.724;6.516;2023-03-14T02:39:53;98701.09;;;9.18;81.25
78671;BME280;68277;52.724;6.516;2023-03-14T02:42:19;98661.44;;;8.85;81.51
78671;BME280;68277;52.724;6.516;2023-03-14T02:47:22;98629.41;;;8.57;81.77
78671;BME280;68277;52.724;6.516;2023-03-14T02:49:53;98683.94;;;8.92;81.99
78671;BME280;68277;52.724;6.516;2023-03-14T02:52:24;98660.19;;;8.75;84.30
78671;BME280;68277;52.724;6.516;2023-03-14T02:54:50;98724.81;;;9.01;85.27
78671;BME280;68277;52.724;6.516;2023-03-14T02:57:16;98696.22;;;8.75;86.28
78671;BME280;68277;52.724;6.516;2023-03-14T02:59:41;98727.38;;;8.85;86.83
78671;BME280;68277;52.724;6.516;2023-03-14T03:02:13;98689.50;;;8.51;87.37
78671;BME280;68277;52.724;6.516;2023-03-14T03:04:39;98664.59;;;8.39;87.21
78671;BME280;68277;52.724;6.516;2023-03-14T03:07:05;98727.09;;;8.73;87.96
78671;BME280;68277;52.724;6.516;2023-03-14T03:09:30;98687.81;;;8.50;87.38
78671;BME280;68277;52.724;6.516;2023-03-14T03:11:56;98710.97;;;8.62;88.35
78671;BME280;68277;52.724;6.516;2023-03-14T03:14:24;98721.19;;;8.68;87.79
78671;BME280;68277;52.724;6.516;2023-03-14T03:16:53;98630.63;;;8.14;87.35
78671;BME280;68277;52.724;6.516;2023-03-14T03:19:20;98611.84;;;8.03;87.50
78671;BME280;68277;52.724;6.516;2023-03-14T03:21:47;98668.41;;;8.34;87.43
78671;BME280;68277;52.724;6.516;2023-03-14T03:24:13;98671.09;;;8.32;87.31
78671;BME280;68277;52.724;6.516;2023-03-14T03:26:39;98618.75;;;8.06;87.62
78671;BME280;68277;52.724;6.516;2023-03-14T03:29:07;98667.59;;;8.32;87.31
78671;BME280;68277;52.724;6.516;2023-03-14T03:31:33;98617.69;;;8.10;86.78
78671;BME280;68277;52.724;6.516;2023-03-14T03:33:59;98682.81;;;8.44;87.42
78671;BME280;68277;52.724;6.516;2023-03-14T03:36:25;98723.75;;;8.69;87.24
78671;BME280;68277;52.724;6.516;2023-03-14T03:38:51;98632.97;;;8.20;87.46
78671;BME280;68277;52.724;6.516;2023-03-14T03:41:17;98715.78;;;8.71;86.53
78671;BME280;68277;52.724;6.516;2023-03-14T03:43:47;98682.31;;;8.54;86.95
78671;BME280;68277;52.724;6.516;2023-03-14T03:46:15;98689.22;;;8.57;87.07
78671;BME280;68277;52.724;6.516;2023-03-14T03:48:40;98702.88;;;8.65;87.15
78671;BME280;68277;52.724;6.516;2023-03-14T03:51:06;98666.00;;;8.46;86.58
78671;BME280;68277;52.724;6.516;2023-03-14T03:53:33;98683.38;;;8.50;86.49
78671;BME280;68277;52.724;6.516;2023-03-14T03:56:00;98649.94;;;8.34;87.10
78671;BME280;68277;52.724;6.516;2023-03-14T03:58:27;98682.47;;;8.51;86.86
78671;BME280;68277;52.724;6.516;2023-03-14T04:00:52;98669.81;;;8.41;87.05
78671;BME280;68277;52.724;6.516;2023-03-14T04:03:18;98715.84;;;8.69;87.20
78671;BME280;68277;52.724;6.516;2023-03-14T04:05:43;98647.78;;;8.23;87.87
78671;BME280;68277;52.724;6.516;2023-03-14T04:08:09;98677.63;;;8.42;88.63
78671;BME280;68277;52.724;6.516;2023-03-14T04:10:36;98693.44;;;8.42;88.29
78671;BME280;68277;52.724;6.516;2023-03-14T04:13:11;98676.22;;;8.35;87.69
78671;BME280;68277;52.724;6.516;2023-03-14T04:15:38;98657.47;;;8.22;88.36
78671;BME280;68277;52.724;6.516;2023-03-14T04:18:10;98687.41;;;8.40;88.73
78671;BME280;68277;52.724;6.516;2023-03-14T04:20:36;98709.81;;;8.49;89.12
78671;BME280;68277;52.724;6.516;2023-03-14T04:23:02;98687.53;;;8.37;88.81
78671;BME280;68277;52.724;6.516;2023-03-14T04:25:28;98588.44;;;7.79;89.52
78671;BME280;68277;52.724;6.516;2023-03-14T04:27:56;98685.97;;;8.33;89.49
78671;BME280;68277;52.724;6.516;2023-03-14T04:30:25;98709.81;;;8.49;88.68
78671;BME280;68277;52.724;6.516;2023-03-14T04:32:54;98672.50;;;8.20;88.31
78671;BME280;68277;52.724;6.516;2023-03-14T04:35:23;98660.88;;;8.24;89.00
78671;BME280;68277;52.724;6.516;2023-03-14T04:37:52;98649.13;;;8.13;89.51
78671;BME280;68277;52.724;6.516;2023-03-14T04:40:19;98712.38;;;8.50;89.26
78671;BME280;68277;52.724;6.516;2023-03-14T04:42:45;98649.63;;;8.21;88.85
78671;BME280;68277;52.724;6.516;2023-03-14T04:45:11;98709.69;;;8.52;88.75
78671;BME280;68277;52.724;6.516;2023-03-14T04:47:40;98668.41;;;8.34;88.54
78671;BME280;68277;52.724;6.516;2023-03-14T04:50:09;98639.47;;;8.13;88.66
78671;BME280;68277;52.724;6.516;2023-03-14T04:52:37;98621.38;;;8.06;87.99
78671;BME280;68277;52.724;6.516;2023-03-14T04:55:03;98692.88;;;8.54;88.17
78671;BME280;68277;52.724;6.516;2023-03-14T04:57:29;98625.19;;;8.17;87.45
78671;BME280;68277;52.724;6.516;2023-03-14T04:59:55;98646.69;;;8.29;88.09
78671;BME280;68277;52.724;6.516;2023-03-14T05:02:38;98609.06;;;8.06;87.65
78671;BME280;68277;52.724;6.516;2023-03-14T05:05:30;98565.75;;;7.76;87.92
78671;BME280;68277;52.724;6.516;2023-03-14T05:08:28;98688.44;;;8.55;88.22
78671;BME280;68277;52.724;6.516;2023-03-14T05:11:16;98672.00;;;8.50;88.09
78671;BME280;68277;52.724;6.516;2023-03-14T05:14:16;98640.41;;;8.31;87.40
78671;BME280;68277;52.724;6.516;2023-03-14T05:16:56;98545.53;;;7.77;88.31
78671;BME280;68277;52.724;6.516;2023-03-14T05:19:37;98582.94;;;8.02;87.32
78671;BME280;68277;52.724;6.516;2023-03-14T05:22:23;98621.34;;;8.24;87.58
78671;BME280;68277;52.724;6.516;2023-03-14T05:25:12;98599.72;;;8.18;87.78
78671;BME280;68277;52.724;6.516;2023-03-14T05:28:09;98622.88;;;8.30;88.26
78671;BME280;68277;52.724;6.516;2023-03-14T05:30:55;98581.63;;;8.10;87.31
78671;BME280;68277;52.724;6.516;2023-03-14T05:33:41;98590.16;;;8.15;88.52
78671;BME280;68277;52.724;6.516;2023-03-14T05:36:30;98530.78;;;7.73;88.64
78671;BME280;68277;52.724;6.516;2023-03-14T05:39:25;98533.44;;;7.73;89.62
78671;BME280;68277;52.724;6.516;2023-03-14T05:42:11;98557.84;;;7.76;89.35
78671;BME280;68277;52.724;6.516;2023-03-14T05:45:03;98580.66;;;7.94;89.38
78671;BME280;68277;52.724;6.516;2023-03-14T05:47:48;98601.47;;;8.00;89.73
78671;BME280;68277;52.724;6.516;2023-03-14T05:50:39;98659.69;;;8.32;90.87
78671;BME280;68277;52.724;6.516;2023-03-14T05:53:27;98605.66;;;8.04;91.12
78671;BME280;68277;52.724;6.516;2023-03-14T05:56:29;98645.22;;;8.21;90.80
78671;BME280;68277;52.724;6.516;2023-03-14T05:59:06;98610.41;;;7.96;91.46
78671;BME280;68277;52.724;6.516;2023-03-14T06:01:43;98626.59;;;8.07;91.00
78671;BME280;68277;52.724;6.516;2023-03-14T06:04:15;98591.72;;;7.84;91.46
78671;BME280;68277;52.724;6.516;2023-03-14T06:06:43;98652.00;;;8.27;91.29
78671;BME280;68277;52.724;6.516;2023-03-14T06:09:10;98652.84;;;8.27;91.00
78671;BME280;68277;52.724;6.516;2023-03-14T06:11:38;98649.72;;;8.19;91.54
78671;BME280;68277;52.724;6.516;2023-03-14T06:14:05;98624.88;;;8.06;91.17
78671;BME280;68277;52.724;6.516;2023-03-14T06:16:34;98650.31;;;8.26;91.07
78671;BME280;68277;52.724;6.516;2023-03-14T06:19:00;98598.88;;;7.99;91.59
78671;BME280;68277;52.724;6.516;2023-03-14T06:21:37;98633.19;;;8.16;91.30
78671;BME280;68277;52.724;6.516;2023-03-14T06:24:03;98636.69;;;8.16;91.24
78671;BME280;68277;52.724;6.516;2023-03-14T06:26:36;98573.50;;;7.79;91.46
78671;BME280;68277;52.724;6.516;2023-03-14T06:29:02;98585.69;;;7.82;91.18
78671;BME280;68277;52.724;6.516;2023-03-14T06:31:30;98622.31;;;8.05;91.18
78671;BME280;68277;52.724;6.516;2023-03-14T06:34:00;98657.13;;;8.30;91.68
78671;BME280;68277;52.724;6.516;2023-03-14T06:36:29;98675.28;;;8.36;91.34
78671;BME280;68277;52.724;6.516;2023-03-14T06:38:59;98677.72;;;8.41;91.60
78671;BME280;68277;52.724;6.516;2023-03-14T06:41:27;98616.19;;;8.04;91.11
78671;BME280;68277;52.724;6.516;2023-03-14T06:43:52;98634.69;;;8.21;90.47
78671;BME280;68277;52.724;6.516;2023-03-14T06:46:24;98623.72;;;8.12;90.67
78671;BME280;68277;52.724;6.516;2023-03-14T06:48:54;98633.28;;;8.14;90.59
78671;BME280;68277;52.724;6.516;2023-03-14T06:51:19;98637.91;;;8.09;91.15
78671;BME280;68277;52.724;6.516;2023-03-14T06:53:47;98593.19;;;7.89;91.32
78671;BME280;68277;52.724;6.516;2023-03-14T06:56:14;98630.13;;;8.06;91.08
78671;BME280;68277;52.724;6.516;2023-03-14T06:58:43;98623.22;;;8.04;91.91
78671;BME280;68277;52.724;6.516;2023-03-14T07:01:23;98665.31;;;8.24;91.80
78671;BME280;68277;52.724;6.516;2023-03-14T07:03:50;98643.09;;;8.11;92.47
78671;BME280;68277;52.724;6.516;2023-03-14T07:06:15;98625.94;;;8.02;92.66
78671;BME280;68277;52.724;6.516;2023-03-14T07:08:41;98705.41;;;8.49;92.17
78671;BME280;68277;52.724;6.516;2023-03-14T07:11:12;98699.47;;;8.25;92.33
78671;BME280;68277;52.724;6.516;2023-03-14T07:13:47;98665.25;;;7.88;92.94
78671;BME280;68277;52.724;6.516;2023-03-14T07:16:14;98750.16;;;8.32;90.46
78671;BME280;68277;52.724;6.516;2023-03-14T07:18:45;98742.06;;;7.98;89.37
78671;BME280;68277;52.724;6.516;2023-03-14T07:21:18;98684.06;;;7.61;89.21
78671;BME280;68277;52.724;6.516;2023-03-14T07:23:44;98785.56;;;8.06;89.19
78671;BME280;68277;52.724;6.516;2023-03-14T07:26:11;98748.31;;;7.75;89.02
78671;BME280;68277;52.724;6.516;2023-03-14T07:28:42;98731.63;;;7.56;89.08
78671;BME280;68277;52.724;6.516;2023-03-14T07:31:12;98800.75;;;7.81;89.68
78671;BME280;68277;52.724;6.516;2023-03-14T07:33:38;98822.91;;;7.76;90.28
78671;BME280;68277;52.724;6.516;2023-03-14T07:36:04;98819.81;;;7.66;91.13
78671;BME280;68277;52.724;6.516;2023-03-14T07:38:30;98816.13;;;7.50;90.70
78671;BME280;68277;52.724;6.516;2023-03-14T07:41:15;98812.63;;;7.29;90.60
78671;BME280;68277;52.724;6.516;2023-03-14T07:44:05;98829.28;;;7.08;89.42
78671;BME280;68277;52.724;6.516;2023-03-14T07:46:31;98834.34;;;6.91;89.30
78671;BME280;68277;52.724;6.516;2023-03-14T07:48:56;98904.59;;;7.11;88.81
78671;BME280;68277;52.724;6.516;2023-03-14T07:51:22;98854.22;;;6.53;87.89
78671;BME280;68277;52.724;6.516;2023-03-14T07:53:47;98875.69;;;6.41;88.51
78671;BME280;68277;52.724;6.516;2023-03-14T07:56:13;98882.53;;;6.22;88.48
78671;BME280;68277;52.724;6.516;2023-03-14T07:58:38;98967.56;;;6.44;87.52
78671;BME280;68277;52.724;6.516;2023-03-14T08:01:06;98921.25;;;5.92;88.10
78671;BME280;68277;52.724;6.516;2023-03-14T08:03:35;98956.25;;;5.91;86.52
78671;BME280;68277;52.724;6.516;2023-03-14T08:06:01;98924.25;;;5.54;86.38
78671;BME280;68277;52.724;6.516;2023-03-14T08:08:26;98913.56;;;5.32;87.33
78671;BME280;68277;52.724;6.516;2023-03-14T08:10:52;98994.09;;;5.58;87.15
78671;BME280;68277;52.724;6.516;2023-03-14T08:13:17;98998.81;;;5.47;87.33
78671;BME280;68277;52.724;6.516;2023-03-14T08:15:47;98988.00;;;5.30;85.31
78671;BME280;68277;52.724;6.516;2023-03-14T08:18:16;98978.00;;;5.13;86.12
78671;BME280;68277;52.724;6.516;2023-03-14T08:20:44;98991.13;;;5.13;84.78
78671;BME280;68277;52.724;6.516;2023-03-14T08:23:10;98998.16;;;5.11;85.53
78671;BME280;68277;52.724;6.516;2023-03-14T08:25:35;99031.13;;;5.20;85.19
78671;BME280;68277;52.724;6.516;2023-03-14T08:28:01;99036.38;;;5.20;86.30
78671;BME280;68277;52.724;6.516;2023-03-14T08:30:29;99017.66;;;5.03;84.39
78671;BME280;68277;52.724;6.516;2023-03-14T08:32:58;99080.50;;;5.35;85.98
78671;BME280;68277;52.724;6.516;2023-03-14T08:35:25;99085.97;;;5.27;84.82
78671;BME280;68277;52.724;6.516;2023-03-14T08:37:50;99046.63;;;4.98;85.65
78671;BME280;68277;52.724;6.516;2023-03-14T08:40:20;99084.13;;;5.00;85.61
78671;BME280;68277;52.724;6.516;2023-03-14T08:42:46;99149.69;;;5.31;85.20
78671;BME280;68277;52.724;6.516;2023-03-14T08:45:13;99139.50;;;5.20;85.17
78671;BME280;68277;52.724;6.516;2023-03-14T08:47:39;99170.81;;;5.26;85.28
78671;BME280;68277;52.724;6.516;2023-03-14T08:50:06;99171.09;;;5.16;85.38
78671;BME280;68277;52.724;6.516;2023-03-14T08:52:32;99203.00;;;5.31;84.70
78671;BME280;68277;52.724;6.516;2023-03-14T08:54:57;99209.06;;;5.33;85.21
78671;BME280;68277;52.724;6.516;2023-03-14T08:57:23;99222.97;;;5.37;84.40
78671;BME280;68277;52.724;6.516;2023-03-14T08:59:54;99194.66;;;5.17;85.08
78671;BME280;68277;52.724;6.516;2023-03-14T09:02:20;99185.31;;;5.07;84.17
78671;BME280;68277;52.724;6.516;2023-03-14T09:04:51;99203.34;;;5.19;84.08
78671;BME280;68277;52.724;6.516;2023-03-14T09:07:17;99211.13;;;5.22;85.02
78671;BME280;68277;52.724;6.516;2023-03-14T09:09:43;99200.78;;;5.16;84.53
78671;BME280;68277;52.724;6.516;2023-03-14T09:12:09;99212.69;;;5.29;84.29
78671;BME280;68277;52.724;6.516;2023-03-14T09:14:34;99233.97;;;5.51;84.36
78671;BME280;68277;52.724;6.516;2023-03-14T09:17:00;99244.66;;;5.74;84.93
78671;BME280;68277;52.724;6.516;2023-03-14T09:19:25;99253.22;;;6.11;83.56
78671;BME280;68277;52.724;6.516;2023-03-14T09:21:51;99265.78;;;6.31;81.51
78671;BME280;68277;52.724;6.516;2023-03-14T09:24:17;99269.38;;;6.27;81.38
78671;BME280;68277;52.724;6.516;2023-03-14T09:26:42;99292.66;;;6.39;81.89
78671;BME280;68277;52.724;6.516;2023-03-14T09:29:08;99309.66;;;6.28;81.22
78671;BME280;68277;52.724;6.516;2023-03-14T09:31:34;99346.81;;;6.45;79.25
78671;BME280;68277;52.724;6.516;2023-03-14T09:34:00;99330.09;;;6.47;79.07
78671;BME280;68277;52.724;6.516;2023-03-14T09:36:25;99327.75;;;6.94;77.51
78671;BME280;68277;52.724;6.516;2023-03-14T09:38:51;99332.06;;;6.96;78.06
78671;BME280;68277;52.724;6.516;2023-03-14T09:41:38;99372.63;;;6.89;75.34
78671;BME280;68277;52.724;6.516;2023-03-14T09:44:10;99388.97;;;6.69;78.10
78671;BME280;68277;52.724;6.516;2023-03-14T09:46:38;99398.56;;;7.00;78.14
78671;BME280;68277;52.724;6.516;2023-03-14T09:49:11;99376.44;;;7.07;75.83
78671;BME280;68277;52.724;6.516;2023-03-14T09:51:37;99383.50;;;7.32;75.07
78671;BME280;68277;52.724;6.516;2023-03-14T09:54:05;99353.78;;;7.29;74.03
78671;BME280;68277;52.724;6.516;2023-03-14T09:56:33;99357.44;;;7.25;73.79
78671;BME280;68277;52.724;6.516;2023-03-14T09:59:00;99428.56;;;7.49;72.45
78671;BME280;68277;52.724;6.516;2023-03-14T10:01:32;99385.59;;;7.23;73.00
78671;BME280;68277;52.724;6.516;2023-03-14T10:04:06;99428.56;;;7.49;72.51
78671;BME280;68277;52.724;6.516;2023-03-14T10:06:32;99406.63;;;7.75;71.07
78671;BME280;68277;52.724;6.516;2023-03-14T10:08:58;99411.88;;;8.01;70.40
78671;BME280;68277;52.724;6.516;2023-03-14T10:11:24;99456.78;;;8.23;71.17
78671;BME280;68277;52.724;6.516;2023-03-14T10:16:30;99425.03;;;7.50;71.93
78671;BME280;68277;52.724;6.516;2023-03-14T10:19:01;99461.47;;;7.07;72.66
78671;BME280;68277;52.724;6.516;2023-03-14T10:21:29;99459.47;;;6.87;71.22
78671;BME280;68277;52.724;6.516;2023-03-14T10:24:28;99522.47;;;7.20;73.92
78671;BME280;68277;52.724;6.516;2023-03-14T10:26:53;99529.16;;;7.31;72.51
78671;BME280;68277;52.724;6.516;2023-03-14T10:29:19;99524.03;;;7.54;71.64
78671;BME280;68277;52.724;6.516;2023-03-14T10:31:54;99542.09;;;7.67;70.78
78671;BME280;68277;52.724;6.516;2023-03-14T10:34:24;99551.84;;;7.63;68.86
78671;BME280;68277;52.724;6.516;2023-03-14T10:36:55;99515.97;;;7.02;73.61
78671;BME280;68277;52.724;6.516;2023-03-14T10:39:25;99528.25;;;6.72;73.92
78671;BME280;68277;52.724;6.516;2023-03-14T10:44:58;99542.69;;;6.24;74.73
78671;BME280;68277;52.724;6.516;2023-03-14T10:47:27;99578.31;;;6.34;76.40
78671;BME280;68277;52.724;6.516;2023-03-14T10:49:54;99595.72;;;6.40;75.01
78671;BME280;68277;52.724;6.516;2023-03-14T10:54:56;99604.94;;;6.56;71.35
78671;BME280;68277;52.724;6.516;2023-03-14T10:57:22;99589.84;;;6.62;68.99
78671;BME280;68277;52.724;6.516;2023-03-14T10:59:49;99654.19;;;7.14;70.32
78671;BME280;68277;52.724;6.516;2023-03-14T11:13:39;99711.41;;;7.99;64.89
78671;BME280;68277;52.724;6.516;2023-03-14T11:16:34;99697.66;;;7.59;62.07
78671;BME280;68277;52.724;6.516;2023-03-14T11:21:59;99745.69;;;7.36;60.70
78671;BME280;68277;52.724;6.516;2023-03-14T11:24:38;99714.31;;;6.97;63.96
78671;BME280;68277;52.724;6.516;2023-03-14T11:27:18;99775.63;;;7.32;60.39
78671;BME280;68277;52.724;6.516;2023-03-14T11:34:59;99734.44;;;7.62;57.04
78671;BME280;68277;52.724;6.516;2023-03-14T11:37:33;99778.47;;;7.57;57.45
78671;BME280;68277;52.724;6.516;2023-03-14T11:40:13;99756.25;;;7.35;57.75
78671;BME280;68277;52.724;6.516;2023-03-14T11:42:41;99766.25;;;7.22;57.77
78671;BME280;68277;52.724;6.516;2023-03-14T11:45:23;99772.88;;;7.37;57.57
78671;BME280;68277;52.724;6.516;2023-03-14T11:48:05;99836.19;;;7.97;57.70
78671;BME280;68277;52.724;6.516;2023-03-14T11:50:33;99792.63;;;8.45;55.29
78671;BME280;68277;52.724;6.516;2023-03-14T11:53:08;99792.53;;;9.02;53.59
78671;BME280;68277;52.724;6.516;2023-03-14T11:55:39;99837.47;;;9.01;51.33
78671;BME280;68277;52.724;6.516;2023-03-14T12:00:38;99803.94;;;8.19;53.73
78671;BME280;68277;52.724;6.516;2023-03-14T12:06:24;99883.91;;;8.78;50.96
78671;BME280;68277;52.724;6.516;2023-03-14T12:09:04;99868.09;;;8.49;51.04
78671;BME280;68277;52.724;6.516;2023-03-14T12:11:36;99898.19;;;8.10;50.14
78671;BME280;68277;52.724;6.516;2023-03-14T12:14:17;99876.50;;;8.00;53.47
78671;BME280;68277;52.724;6.516;2023-03-14T12:16:46;99867.41;;;8.10;50.28
78671;BME280;68277;52.724;6.516;2023-03-14T12:21:50;99846.69;;;7.98;46.26
78671;BME280;68277;52.724;6.516;2023-03-14T12:24:19;99847.19;;;8.11;47.90
78671;BME280;68277;52.724;6.516;2023-03-14T12:26:59;99892.56;;;8.22;46.19
78671;BME280;68277;52.724;6.516;2023-03-14T12:29:25;99899.06;;;8.41;48.41
78671;BME280;68277;52.724;6.516;2023-03-14T12:34:30;99925.09;;;8.21;50.98
78671;BME280;68277;52.724;6.516;2023-03-14T12:37:14;99945.84;;;8.01;50.11
78671;BME280;68277;52.724;6.516;2023-03-14T12:40:06;99953.22;;;8.20;49.57
78671;BME280;68277;52.724;6.516;2023-03-14T12:43:03;99952.00;;;8.66;44.74
78671;BME280;68277;52.724;6.516;2023-03-14T12:48:32;99897.69;;;8.59;46.62
78671;BME280;68277;52.724;6.516;2023-03-14T12:51:03;99905.00;;;8.49;43.49
78671;BME280;68277;52.724;6.516;2023-03-14T12:56:26;99901.72;;;8.41;45.74
78671;BME280;68277;52.724;6.516;2023-03-14T13:01:24;99964.88;;;9.35;44.88
78671;BME280;68277;52.724;6.516;2023-03-14T13:06:54;100010.72;;;8.72;45.64
78671;BME280;68277;52.724;6.516;2023-03-14T13:12:11;99945.22;;;7.57;50.25
78671;BME280;68277;52.724;6.516;2023-03-14T13:14:41;99909.66;;;7.40;50.48
78671;BME280;68277;52.724;6.516;2023-03-14T13:17:11;99940.00;;;7.54;52.72
78671;BME280;68277;52.724;6.516;2023-03-14T13:19:38;100024.69;;;7.75;50.94
78671;BME280;68277;52.724;6.516;2023-03-14T13:22:27;100029.53;;;7.54;53.10
78671;BME280;68277;52.724;6.516;2023-03-14T13:25:00;100072.31;;;7.64;54.18
78671;BME280;68277;52.724;6.516;2023-03-14T13:27:26;100031.81;;;7.31;52.65
78671;BME280;68277;52.724;6.516;2023-03-14T13:29:57;100038.72;;;7.37;52.61
78671;BME280;68277;52.724;6.516;2023-03-14T13:32:27;100056.41;;;7.30;51.57
78671;BME280;68277;52.724;6.516;2023-03-14T13:34:57;100059.47;;;7.09;51.20
78671;BME280;68277;52.724;6.516;2023-03-14T13:37:25;100078.22;;;6.93;51.58
78671;BME280;68277;52.724;6.516;2023-03-14T13:39:55;100046.03;;;6.81;49.87
78671;BME280;68277;52.724;6.516;2023-03-14T13:42:27;100107.78;;;7.88;47.53
78671;BME280;68277;52.724;6.516;2023-03-14T13:44:55;100068.00;;;7.98;47.84
78671;BME280;68277;52.724;6.516;2023-03-14T13:47:23;100072.53;;;7.93;44.89
78671;BME280;68277;52.724;6.516;2023-03-14T13:49:50;100131.81;;;8.11;40.26
78671;BME280;68277;52.724;6.516;2023-03-14T13:54:56;100130.97;;;8.46;42.81
78671;BME280;68277;52.724;6.516;2023-03-14T13:57:22;100136.75;;;8.26;41.51
78671;BME280;68277;52.724;6.516;2023-03-14T14:00:07;100105.03;;;7.92;44.25
78671;BME280;68277;52.724;6.516;2023-03-14T14:02:38;100113.41;;;8.09;41.27
78671;BME280;68277;52.724;6.516;2023-03-14T14:05:04;100030.50;;;7.50;41.61
78671;BME280;68277;52.724;6.516;2023-03-14T14:07:30;100184.44;;;8.14;44.52
78671;BME280;68277;52.724;6.516;2023-03-14T14:09:56;100173.94;;;7.73;44.79
78671;BME280;68277;52.724;6.516;2023-03-14T14:12:31;100186.38;;;7.25;42.54
78671;BME280;68277;52.724;6.516;2023-03-14T14:15:04;100194.53;;;7.10;45.51
78671;BME280;68277;52.724;6.516;2023-03-14T14:17:38;100214.88;;;7.02;45.17
78671;BME280;68277;52.724;6.516;2023-03-14T14:22:57;100200.63;;;7.56;45.80
78671;BME280;68277;52.724;6.516;2023-03-14T14:25:23;100211.50;;;7.41;46.06
78671;BME280;68277;52.724;6.516;2023-03-14T14:27:49;100227.97;;;7.50;44.34
78671;BME280;68277;52.724;6.516;2023-03-14T14:32:49;100262.44;;;8.22;47.27
78671;BME280;68277;52.724;6.516;2023-03-14T14:35:24;100240.34;;;8.30;45.69
78671;BME280;68277;52.724;6.516;2023-03-14T14:37:50;100244.34;;;8.47;43.95